sensor_id;sensor_type;location;lat;lon;timestamp;P1;durP1;ratioP1;P2;durP2;ratioP2
28802;SDS011;15949;55.656;37.422;2023-04-24T00:01:04;31.00;;;12.50;;
28802;SDS011;15949;55.656;37.422;2023-04-24T00:06:12;28.88;;;11.65;;
28802;SDS011;15949;55.656;37.422;2023-04-24T00:11:18;25.65;;;12.10;;
28802;SDS011;15949;55.656;37.422;2023-04-24T00:16:24;26.95;;;12.55;;
28802;SDS011;15949;55.656;37.422;2023-04-24T00:21:29;29.50;;;12.23;;
28802;SDS011;15949;55.656;37.422;2023-04-24T00:26:37;23.08;;;12.13;;
28802;SDS011;15949;55.656;37.422;2023-04-24T00:31:43;20.65;;;11.02;;
28802;SDS011;15949;55.656;37.422;2023-04-24T00:36:48;22.08;;;10.68;;
28802;SDS011;15949;55.656;37.422;2023-04-24T00:41:57;27.38;;;10.80;;
28802;SDS011;15949;55.656;37.422;2023-04-24T00:47:02;25.23;;;10.40;;
28802;SDS011;15949;55.656;37.422;2023-04-24T00:52:08;17.50;;;9.75;;
28802;SDS011;15949;55.656;37.422;2023-04-24T00:57:14;19.67;;;9.50;;
28802;SDS011;15949;55.656;37.422;2023-04-24T01:02:20;19.20;;;9.00;;
28802;SDS011;15949;55.656;37.422;2023-04-24T01:07:28;23.80;;;9.40;;
28802;SDS011;15949;55.656;37.422;2023-04-24T01:12:34;17.08;;;9.07;;
28802;SDS011;15949;55.656;37.422;2023-04-24T01:17:39;20.92;;;10.00;;
28802;SDS011;15949;55.656;37.422;2023-04-24T01:22:45;14.95;;;8.95;;
28802;SDS011;15949;55.656;37.422;2023-04-24T01:27:51;15.90;;;8.63;;
28802;SDS011;15949;55.656;37.422;2023-04-24T01:32:57;16.42;;;8.68;;
28802;SDS011;15949;55.656;37.422;2023-04-24T01:38:04;19.88;;;9.02;;
28802;SDS011;15949;55.656;37.422;2023-04-24T01:43:11;20.75;;;9.20;;
28802;SDS011;15949;55.656;37.422;2023-04-24T01:48:17;18.92;;;9.70;;
28802;SDS011;15949;55.656;37.422;2023-04-24T01:53:23;17.20;;;9.35;;
28802;SDS011;15949;55.656;37.422;2023-04-24T01:58:28;18.15;;;9.23;;
28802;SDS011;15949;55.656;37.422;2023-04-24T02:03:34;18.20;;;9.07;;
28802;SDS011;15949;55.656;37.422;2023-04-24T02:08:40;19.17;;;9.35;;
28802;SDS011;15949;55.656;37.422;2023-04-24T02:13:45;18.17;;;9.98;;
28802;SDS011;15949;55.656;37.422;2023-04-24T02:18:51;15.05;;;9.32;;
28802;SDS011;15949;55.656;37.422;2023-04-24T02:23:57;18.67;;;10.48;;
28802;SDS011;15949;55.656;37.422;2023-04-24T02:29:02;15.27;;;9.98;;
28802;SDS011;15949;55.656;37.422;2023-04-24T02:34:08;18.20;;;9.95;;
28802;SDS011;15949;55.656;37.422;2023-04-24T02:39:14;17.67;;;10.10;;
28802;SDS011;15949;55.656;37.422;2023-04-24T02:44:21;16.05;;;10.32;;
28802;SDS011;15949;55.656;37.422;2023-04-24T02:49:27;18.63;;;9.82;;
28802;SDS011;15949;55.656;37.422;2023-04-24T02:54:33;15.40;;;9.43;;
28802;SDS011;15949;55.656;37.422;2023-04-24T02:59:38;18.10;;;9.63;;
28802;SDS011;15949;55.656;37.422;2023-04-24T03:04:44;15.73;;;9.13;;
28802;SDS011;15949;55.656;37.422;2023-04-24T03:09:50;18.15;;;9.13;;
28802;SDS011;15949;55.656;37.422;2023-04-24T03:14:55;18.45;;;9.65;;
28802;SDS011;15949;55.656;37.422;2023-04-24T03:20:01;16.77;;;9.55;;
28802;SDS011;15949;55.656;37.422;2023-04-24T03:25:07;17.63;;;8.48;;
28802;SDS011;15949;55.656;37.422;2023-04-24T03:30:14;18.60;;;9.43;;
28802;SDS011;15949;55.656;37.422;2023-04-24T03:35:19;16.30;;;9.35;;
28802;SDS011;15949;55.656;37.422;2023-04-24T03:40:27;17.77;;;9.18;;
28802;SDS011;15949;55.656;37.422;2023-04-24T03:45:34;19.13;;;9.45;;
28802;SDS011;15949;55.656;37.422;2023-04-24T03:50:40;19.58;;;10.00;;
28802;SDS011;15949;55.656;37.422;2023-04-24T03:55:45;22.80;;;10.00;;
28802;SDS011;15949;55.656;37.422;2023-04-24T04:00:51;16.52;;;9.40;;
28802;SDS011;15949;55.656;37.422;2023-04-24T04:05:57;20.67;;;9.48;;
28802;SDS011;15949;55.656;37.422;2023-04-24T04:11:03;24.17;;;9.85;;
28802;SDS011;15949;55.656;37.422;2023-04-24T04:16:08;18.33;;;9.43;;
28802;SDS011;15949;55.656;37.422;2023-04-24T04:21:14;16.85;;;8.85;;
28802;SDS011;15949;55.656;37.422;2023-04-24T04:26:19;16.70;;;9.00;;
28802;SDS011;15949;55.656;37.422;2023-04-24T04:31:26;19.33;;;8.80;;
28802;SDS011;15949;55.656;37.422;2023-04-24T04:36:31;18.30;;;8.73;;
28802;SDS011;15949;55.656;37.422;2023-04-24T04:41:41;21.38;;;8.60;;
28802;SDS011;15949;55.656;37.422;2023-04-24T04:46:47;19.75;;;8.93;;
28802;SDS011;15949;55.656;37.422;2023-04-24T04:51:53;24.20;;;8.75;;
28802;SDS011;15949;55.656;37.422;2023-04-24T04:56:58;16.35;;;8.20;;
28802;SDS011;15949;55.656;37.422;2023-04-24T05:02:05;15.43;;;8.02;;
28802;SDS011;15949;55.656;37.422;2023-04-24T05:07:11;20.52;;;8.25;;
28802;SDS011;15949;55.656;37.422;2023-04-24T05:12:16;18.55;;;8.63;;
28802;SDS011;15949;55.656;37.422;2023-04-24T05:17:22;19.50;;;8.77;;
28802;SDS011;15949;55.656;37.422;2023-04-24T05:22:27;20.50;;;8.85;;
28802;SDS011;15949;55.656;37.422;2023-04-24T05:27:33;15.85;;;8.30;;
28802;SDS011;15949;55.656;37.422;2023-04-24T05:32:38;13.35;;;8.25;;
28802;SDS011;15949;55.656;37.422;2023-04-24T05:37:44;20.48;;;8.80;;
28802;SDS011;15949;55.656;37.422;2023-04-24T05:42:50;43.60;;;20.67;;
28802;SDS011;15949;55.656;37.422;2023-04-24T05:47:55;18.85;;;9.52;;
28802;SDS011;15949;55.656;37.422;2023-04-24T05:53:01;15.98;;;7.90;;
28802;SDS011;15949;55.656;37.422;2023-04-24T05:58:07;17.42;;;8.38;;
28802;SDS011;15949;55.656;37.422;2023-04-24T06:03:13;21.15;;;8.80;;
28802;SDS011;15949;55.656;37.422;2023-04-24T06:08:19;15.77;;;7.25;;
28802;SDS011;15949;55.656;37.422;2023-04-24T06:13:25;14.05;;;6.93;;
28802;SDS011;15949;55.656;37.422;2023-04-24T06:18:30;15.07;;;7.32;;
28802;SDS011;15949;55.656;37.422;2023-04-24T06:23:36;16.85;;;7.90;;
28802;SDS011;15949;55.656;37.422;2023-04-24T06:28:41;20.85;;;8.43;;
28802;SDS011;15949;55.656;37.422;2023-04-24T06:33:48;16.52;;;7.30;;
28802;SDS011;15949;55.656;37.422;2023-04-24T06:38:54;19.92;;;7.22;;
28802;SDS011;15949;55.656;37.422;2023-04-24T06:43:59;15.32;;;6.50;;
28802;SDS011;15949;55.656;37.422;2023-04-24T06:49:05;14.35;;;6.53;;
28802;SDS011;15949;55.656;37.422;2023-04-24T06:54:11;15.18;;;6.50;;
28802;SDS011;15949;55.656;37.422;2023-04-24T06:59:16;14.68;;;5.93;;
28802;SDS011;15949;55.656;37.422;2023-04-24T07:04:22;10.60;;;6.07;;
28802;SDS011;15949;55.656;37.422;2023-04-24T07:09:27;12.00;;;6.03;;
28802;SDS011;15949;55.656;37.422;2023-04-24T07:14:33;14.85;;;6.43;;
28802;SDS011;15949;55.656;37.422;2023-04-24T07:19:39;18.77;;;6.72;;
28802;SDS011;15949;55.656;37.422;2023-04-24T07:24:44;26.17;;;7.10;;
28802;SDS011;15949;55.656;37.422;2023-04-24T07:29:50;14.02;;;5.45;;
28802;SDS011;15949;55.656;37.422;2023-04-24T07:34:56;15.45;;;5.28;;
28802;SDS011;15949;55.656;37.422;2023-04-24T07:40:02;11.50;;;5.03;;
28802;SDS011;15949;55.656;37.422;2023-04-24T07:45:08;7.53;;;4.80;;
28802;SDS011;15949;55.656;37.422;2023-04-24T07:50:14;10.05;;;4.70;;
28802;SDS011;15949;55.656;37.422;2023-04-24T07:55:20;8.02;;;4.70;;
28802;SDS011;15949;55.656;37.422;2023-04-24T08:00:26;10.23;;;4.72;;
28802;SDS011;15949;55.656;37.422;2023-04-24T08:05:31;8.63;;;3.92;;
28802;SDS011;15949;55.656;37.422;2023-04-24T08:10:37;9.63;;;4.68;;
28802;SDS011;15949;55.656;37.422;2023-04-24T08:15:42;5.68;;;4.57;;
28802;SDS011;15949;55.656;37.422;2023-04-24T08:20:48;10.18;;;4.80;;
28802;SDS011;15949;55.656;37.422;2023-04-24T08:25:54;12.70;;;5.43;;
28802;SDS011;15949;55.656;37.422;2023-04-24T08:30:59;13.77;;;5.22;;
28802;SDS011;15949;55.656;37.422;2023-04-24T08:36:05;7.00;;;4.88;;
28802;SDS011;15949;55.656;37.422;2023-04-24T08:41:11;8.38;;;4.40;;
28802;SDS011;15949;55.656;37.422;2023-04-24T08:46:17;11.10;;;4.07;;
28802;SDS011;15949;55.656;37.422;2023-04-24T08:51:24;8.90;;;4.30;;
28802;SDS011;15949;55.656;37.422;2023-04-24T08:56:31;9.90;;;4.93;;
28802;SDS011;15949;55.656;37.422;2023-04-24T09:01:38;6.10;;;4.43;;
28802;SDS011;15949;55.656;37.422;2023-04-24T09:06:45;7.93;;;4.05;;
28802;SDS011;15949;55.656;37.422;2023-04-24T09:11:51;7.32;;;4.07;;
28802;SDS011;15949;55.656;37.422;2023-04-24T09:17:00;8.88;;;4.40;;
28802;SDS011;15949;55.656;37.422;2023-04-24T09:22:06;5.28;;;3.85;;
28802;SDS011;15949;55.656;37.422;2023-04-24T09:27:12;10.57;;;4.25;;
28802;SDS011;15949;55.656;37.422;2023-04-24T09:32:20;5.60;;;3.90;;
28802;SDS011;15949;55.656;37.422;2023-04-24T09:37:27;7.25;;;3.78;;
28802;SDS011;15949;55.656;37.422;2023-04-24T09:42:34;4.97;;;3.80;;
28802;SDS011;15949;55.656;37.422;2023-04-24T09:47:41;6.97;;;3.80;;
28802;SDS011;15949;55.656;37.422;2023-04-24T09:52:55;6.10;;;3.70;;
28802;SDS011;15949;55.656;37.422;2023-04-24T09:58:02;5.25;;;3.85;;
28802;SDS011;15949;55.656;37.422;2023-04-24T10:03:10;5.70;;;3.88;;
28802;SDS011;15949;55.656;37.422;2023-04-24T10:08:16;5.95;;;4.15;;
28802;SDS011;15949;55.656;37.422;2023-04-24T10:13:22;5.68;;;3.92;;
28802;SDS011;15949;55.656;37.422;2023-04-24T10:18:27;8.18;;;3.70;;
28802;SDS011;15949;55.656;37.422;2023-04-24T10:23:33;11.38;;;4.55;;
28802;SDS011;15949;55.656;37.422;2023-04-24T10:28:40;9.73;;;6.00;;
28802;SDS011;15949;55.656;37.422;2023-04-24T10:33:47;8.82;;;4.60;;
28802;SDS011;15949;55.656;37.422;2023-04-24T10:38:55;11.05;;;4.05;;
28802;SDS011;15949;55.656;37.422;2023-04-24T10:44:08;8.80;;;3.65;;
28802;SDS011;15949;55.656;37.422;2023-04-24T10:49:15;7.53;;;3.58;;
28802;SDS011;15949;55.656;37.422;2023-04-24T10:54:22;6.82;;;3.30;;
28802;SDS011;15949;55.656;37.422;2023-04-24T10:59:34;5.90;;;3.55;;
28802;SDS011;15949;55.656;37.422;2023-04-24T11:04:42;8.02;;;3.60;;
28802;SDS011;15949;55.656;37.422;2023-04-24T11:09:48;9.57;;;3.80;;
28802;SDS011;15949;55.656;37.422;2023-04-24T11:15:04;8.50;;;3.78;;
28802;SDS011;15949;55.656;37.422;2023-04-24T11:20:17;11.93;;;4.50;;
28802;SDS011;15949;55.656;37.422;2023-04-24T11:25:23;10.60;;;3.70;;
28802;SDS011;15949;55.656;37.422;2023-04-24T11:30:30;5.25;;;3.30;;
28802;SDS011;15949;55.656;37.422;2023-04-24T11:35:39;9.20;;;3.40;;
28802;SDS011;15949;55.656;37.422;2023-04-24T11:40:45;6.40;;;3.30;;
28802;SDS011;15949;55.656;37.422;2023-04-24T11:45:54;8.77;;;3.50;;
28802;SDS011;15949;55.656;37.422;2023-04-24T11:51:01;6.03;;;3.15;;
28802;SDS011;15949;55.656;37.422;2023-04-24T11:56:08;5.30;;;3.85;;
28802;SDS011;15949;55.656;37.422;2023-04-24T12:01:14;7.10;;;3.15;;
28802;SDS011;15949;55.656;37.422;2023-04-24T12:06:20;9.13;;;3.10;;
28802;SDS011;15949;55.656;37.422;2023-04-24T12:11:25;5.03;;;3.13;;
28802;SDS011;15949;55.656;37.422;2023-04-24T12:16:32;13.18;;;3.40;;
28802;SDS011;15949;55.656;37.422;2023-04-24T12:21:38;8.82;;;3.42;;
28802;SDS011;15949;55.656;37.422;2023-04-24T12:26:43;5.15;;;3.28;;
28802;SDS011;15949;55.656;37.422;2023-04-24T12:31:49;9.82;;;3.15;;
28802;SDS011;15949;55.656;37.422;2023-04-24T12:36:56;10.32;;;3.50;;
28802;SDS011;15949;55.656;37.422;2023-04-24T12:42:01;8.93;;;3.05;;
28802;SDS011;15949;55.656;37.422;2023-04-24T12:47:08;5.85;;;3.25;;
28802;SDS011;15949;55.656;37.422;2023-04-24T12:52:14;5.25;;;3.47;;
28802;SDS011;15949;55.656;37.422;2023-04-24T12:57:20;8.18;;;3.20;;
28802;SDS011;15949;55.656;37.422;2023-04-24T13:02:28;7.53;;;3.30;;
28802;SDS011;15949;55.656;37.422;2023-04-24T13:07:36;7.85;;;3.00;;
28802;SDS011;15949;55.656;37.422;2023-04-24T13:12:41;6.15;;;3.15;;
28802;SDS011;15949;55.656;37.422;2023-04-24T13:17:50;5.97;;;3.30;;
28802;SDS011;15949;55.656;37.422;2023-04-24T13:22:56;11.73;;;3.13;;
28802;SDS011;15949;55.656;37.422;2023-04-24T13:28:01;5.45;;;3.38;;
28802;SDS011;15949;55.656;37.422;2023-04-24T13:33:07;9.27;;;3.03;;
28802;SDS011;15949;55.656;37.422;2023-04-24T13:38:12;11.80;;;3.60;;
28802;SDS011;15949;55.656;37.422;2023-04-24T13:43:18;5.35;;;3.35;;
28802;SDS011;15949;55.656;37.422;2023-04-24T13:48:23;11.00;;;3.20;;
28802;SDS011;15949;55.656;37.422;2023-04-24T13:53:29;9.18;;;3.67;;
28802;SDS011;15949;55.656;37.422;2023-04-24T13:58:35;6.57;;;3.70;;
28802;SDS011;15949;55.656;37.422;2023-04-24T14:03:43;9.00;;;3.50;;
28802;SDS011;15949;55.656;37.422;2023-04-24T14:08:49;9.05;;;3.03;;
28802;SDS011;15949;55.656;37.422;2023-04-24T14:13:55;10.73;;;3.20;;
28802;SDS011;15949;55.656;37.422;2023-04-24T14:19:01;12.38;;;3.83;;
28802;SDS011;15949;55.656;37.422;2023-04-24T14:24:07;14.18;;;4.65;;
28802;SDS011;15949;55.656;37.422;2023-04-24T14:29:13;12.95;;;5.47;;
28802;SDS011;15949;55.656;37.422;2023-04-24T14:34:19;6.63;;;3.58;;
28802;SDS011;15949;55.656;37.422;2023-04-24T14:39:25;9.05;;;4.57;;
28802;SDS011;15949;55.656;37.422;2023-04-24T14:44:31;5.50;;;3.25;;
28802;SDS011;15949;55.656;37.422;2023-04-24T14:49:37;6.80;;;3.30;;
28802;SDS011;15949;55.656;37.422;2023-04-24T14:54:43;6.65;;;3.60;;
28802;SDS011;15949;55.656;37.422;2023-04-24T14:59:48;8.55;;;2.95;;
28802;SDS011;15949;55.656;37.422;2023-04-24T15:04:54;7.18;;;3.13;;
28802;SDS011;15949;55.656;37.422;2023-04-24T15:10:00;9.23;;;3.40;;
28802;SDS011;15949;55.656;37.422;2023-04-24T15:15:06;5.88;;;2.90;;
28802;SDS011;15949;55.656;37.422;2023-04-24T15:20:13;8.75;;;4.03;;
28802;SDS011;15949;55.656;37.422;2023-04-24T15:25:18;12.15;;;3.30;;
28802;SDS011;15949;55.656;37.422;2023-04-24T15:30:24;9.73;;;3.30;;
28802;SDS011;15949;55.656;37.422;2023-04-24T15:35:29;6.63;;;2.90;;
28802;SDS011;15949;55.656;37.422;2023-04-24T15:40:35;8.93;;;3.42;;
28802;SDS011;15949;55.656;37.422;2023-04-24T15:45:41;8.13;;;3.20;;
28802;SDS011;15949;55.656;37.422;2023-04-24T15:50:46;9.95;;;3.35;;
28802;SDS011;15949;55.656;37.422;2023-04-24T15:55:52;9.05;;;3.42;;
28802;SDS011;15949;55.656;37.422;2023-04-24T16:00:59;11.25;;;5.07;;
28802;SDS011;15949;55.656;37.422;2023-04-24T16:06:05;12.90;;;4.10;;
28802;SDS011;15949;55.656;37.422;2023-04-24T16:11:10;9.70;;;4.00;;
28802;SDS011;15949;55.656;37.422;2023-04-24T16:16:16;14.75;;;3.80;;
28802;SDS011;15949;55.656;37.422;2023-04-24T16:21:21;15.70;;;4.38;;
28802;SDS011;15949;55.656;37.422;2023-04-24T16:26:27;10.25;;;3.97;;
28802;SDS011;15949;55.656;37.422;2023-04-24T16:31:33;14.63;;;5.45;;
28802;SDS011;15949;55.656;37.422;2023-04-24T16:36:38;13.13;;;5.97;;
28802;SDS011;15949;55.656;37.422;2023-04-24T16:41:44;16.15;;;6.13;;
28802;SDS011;15949;55.656;37.422;2023-04-24T16:46:50;22.02;;;5.05;;
28802;SDS011;15949;55.656;37.422;2023-04-24T16:51:55;12.50;;;4.40;;
28802;SDS011;15949;55.656;37.422;2023-04-24T16:57:02;19.52;;;4.70;;
28802;SDS011;15949;55.656;37.422;2023-04-24T17:02:08;12.55;;;5.05;;
28802;SDS011;15949;55.656;37.422;2023-04-24T17:07:14;12.15;;;4.85;;
28802;SDS011;15949;55.656;37.422;2023-04-24T17:12:21;14.98;;;5.05;;
28802;SDS011;15949;55.656;37.422;2023-04-24T17:17:27;13.45;;;5.07;;
28802;SDS011;15949;55.656;37.422;2023-04-24T17:22:32;15.07;;;5.15;;
28802;SDS011;15949;55.656;37.422;2023-04-24T17:27:38;16.75;;;5.03;;
28802;SDS011;15949;55.656;37.422;2023-04-24T17:32:44;19.80;;;5.78;;
28802;SDS011;15949;55.656;37.422;2023-04-24T17:37:50;20.00;;;6.00;;
28802;SDS011;15949;55.656;37.422;2023-04-24T17:42:55;17.60;;;6.18;;
28802;SDS011;15949;55.656;37.422;2023-04-24T17:48:01;15.15;;;5.15;;
28802;SDS011;15949;55.656;37.422;2023-04-24T17:53:06;17.63;;;5.25;;
28802;SDS011;15949;55.656;37.422;2023-04-24T17:58:12;18.20;;;5.10;;
28802;SDS011;15949;55.656;37.422;2023-04-24T18:03:18;18.80;;;5.80;;
28802;SDS011;15949;55.656;37.422;2023-04-24T18:08:24;19.52;;;5.88;;
28802;SDS011;15949;55.656;37.422;2023-04-24T18:13:29;20.52;;;5.57;;
28802;SDS011;15949;55.656;37.422;2023-04-24T18:18:35;18.25;;;5.68;;
28802;SDS011;15949;55.656;37.422;2023-04-24T18:23:41;16.38;;;6.00;;
28802;SDS011;15949;55.656;37.422;2023-04-24T18:28:47;14.65;;;5.82;;
28802;SDS011;15949;55.656;37.422;2023-04-24T18:33:52;20.50;;;5.78;;
28802;SDS011;15949;55.656;37.422;2023-04-24T18:38:59;18.73;;;5.78;;
28802;SDS011;15949;55.656;37.422;2023-04-24T18:44:05;25.50;;;5.95;;
28802;SDS011;15949;55.656;37.422;2023-04-24T18:49:10;15.73;;;5.68;;
28802;SDS011;15949;55.656;37.422;2023-04-24T18:54:16;15.48;;;6.30;;
28802;SDS011;15949;55.656;37.422;2023-04-24T18:59:21;21.90;;;6.45;;
28802;SDS011;15949;55.656;37.422;2023-04-24T19:04:27;21.15;;;6.95;;
28802;SDS011;15949;55.656;37.422;2023-04-24T19:09:33;15.13;;;7.00;;
28802;SDS011;15949;55.656;37.422;2023-04-24T19:14:39;18.15;;;7.00;;
28802;SDS011;15949;55.656;37.422;2023-04-24T19:19:45;20.70;;;7.40;;
28802;SDS011;15949;55.656;37.422;2023-04-24T19:24:51;25.23;;;7.15;;
28802;SDS011;15949;55.656;37.422;2023-04-24T19:29:57;20.25;;;6.82;;
28802;SDS011;15949;55.656;37.422;2023-04-24T19:35:03;25.30;;;6.80;;
28802;SDS011;15949;55.656;37.422;2023-04-24T19:40:10;14.13;;;6.57;;
28802;SDS011;15949;55.656;37.422;2023-04-24T19:45:17;14.30;;;5.72;;
28802;SDS011;15949;55.656;37.422;2023-04-24T19:50:23;18.73;;;5.70;;
28802;SDS011;15949;55.656;37.422;2023-04-24T19:55:28;15.63;;;5.40;;
28802;SDS011;15949;55.656;37.422;2023-04-24T20:00:34;18.95;;;6.28;;
28802;SDS011;15949;55.656;37.422;2023-04-24T20:05:40;17.10;;;6.38;;
28802;SDS011;15949;55.656;37.422;2023-04-24T20:10:45;15.10;;;5.97;;
28802;SDS011;15949;55.656;37.422;2023-04-24T20:15:51;18.75;;;6.20;;
28802;SDS011;15949;55.656;37.422;2023-04-24T20:20:56;24.60;;;6.13;;
28802;SDS011;15949;55.656;37.422;2023-04-24T20:26:03;17.10;;;5.95;;
28802;SDS011;15949;55.656;37.422;2023-04-24T20:31:09;20.70;;;6.50;;
28802;SDS011;15949;55.656;37.422;2023-04-24T20:36:14;23.98;;;7.18;;
28802;SDS011;15949;55.656;37.422;2023-04-24T20:41:20;16.85;;;6.00;;
28802;SDS011;15949;55.656;37.422;2023-04-24T20:46:26;19.05;;;6.70;;
28802;SDS011;15949;55.656;37.422;2023-04-24T20:51:31;20.38;;;6.50;;
28802;SDS011;15949;55.656;37.422;2023-04-24T20:56:37;23.17;;;6.13;;
28802;SDS011;15949;55.656;37.422;2023-04-24T21:01:43;20.88;;;6.72;;
28802;SDS011;15949;55.656;37.422;2023-04-24T21:06:48;21.13;;;6.43;;
28802;SDS011;15949;55.656;37.422;2023-04-24T21:11:54;14.38;;;6.57;;
28802;SDS011;15949;55.656;37.422;2023-04-24T21:17:01;16.33;;;5.97;;
28802;SDS011;15949;55.656;37.422;2023-04-24T21:22:07;17.05;;;6.20;;
28802;SDS011;15949;55.656;37.422;2023-04-24T21:27:12;15.75;;;6.10;;
28802;SDS011;15949;55.656;37.422;2023-04-24T21:32:18;13.25;;;6.20;;
28802;SDS011;15949;55.656;37.422;2023-04-24T21:37:27;17.17;;;6.43;;
28802;SDS011;15949;55.656;37.422;2023-04-24T21:42:33;27.30;;;6.70;;
28802;SDS011;15949;55.656;37.422;2023-04-24T21:47:39;19.98;;;7.07;;
28802;SDS011;15949;55.656;37.422;2023-04-24T21:52:44;18.25;;;7.00;;
28802;SDS011;15949;55.656;37.422;2023-04-24T21:57:50;14.80;;;7.78;;
28802;SDS011;15949;55.656;37.422;2023-04-24T22:02:55;20.50;;;8.27;;
28802;SDS011;15949;55.656;37.422;2023-04-24T22:08:01;21.40;;;8.73;;
28802;SDS011;15949;55.656;37.422;2023-04-24T22:13:07;22.45;;;9.77;;
28802;SDS011;15949;55.656;37.422;2023-04-24T22:18:12;26.27;;;9.93;;
28802;SDS011;15949;55.656;37.422;2023-04-24T22:23:18;25.60;;;9.10;;
28802;SDS011;15949;55.656;37.422;2023-04-24T22:28:24;28.27;;;9.02;;
28802;SDS011;15949;55.656;37.422;2023-04-24T22:33:30;20.83;;;8.82;;
28802;SDS011;15949;55.656;37.422;2023-04-24T22:38:35;17.67;;;8.07;;
28802;SDS011;15949;55.656;37.422;2023-04-24T22:43:41;25.40;;;8.13;;
28802;SDS011;15949;55.656;37.422;2023-04-24T22:48:46;17.42;;;7.60;;
28802;SDS011;15949;55.656;37.422;2023-04-24T22:53:53;14.55;;;6.63;;
28802;SDS011;15949;55.656;37.422;2023-04-24T22:58:59;14.88;;;6.68;;
28802;SDS011;15949;55.656;37.422;2023-04-24T23:04:04;18.27;;;7.20;;
28802;SDS011;15949;55.656;37.422;2023-04-24T23:09:10;16.27;;;7.35;;
28802;SDS011;15949;55.656;37.422;2023-04-24T23:14:16;14.65;;;7.28;;
28802;SDS011;15949;55.656;37.422;2023-04-24T23:19:22;15.00;;;7.28;;
28802;SDS011;15949;55.656;37.422;2023-04-24T23:24:28;19.75;;;7.53;;
28802;SDS011;15949;55.656;37.422;2023-04-24T23:29:33;18.88;;;8.25;;
28802;SDS011;15949;55.656;37.422;2023-04-24T23:34:39;16.05;;;7.28;;
28802;SDS011;15949;55.656;37.422;2023-04-24T23:39:45;20.38;;;7.80;;
28802;SDS011;15949;55.656;37.422;2023-04-24T23:44:51;17.00;;;7.72;;
28802;SDS011;15949;55.656;37.422;2023-04-24T23:49:57;19.50;;;7.57;;
28802;SDS011;15949;55.656;37.422;2023-04-24T23:55:02;17.73;;;7.07;;
